createdAt,value
2023-05-10T00:00:47.829Z,61.26
2023-05-10T00:03:14.729Z,61.19
2023-05-10T00:05:42.379Z,61.43
2023-05-10T00:08:08.901Z,61.36
2023-05-10T00:10:35.653Z,61.58
2023-05-10T00:13:02.119Z,61.31
2023-05-10T00:15:28.640Z,62.00
2023-05-10T00:17:55.240Z,61.65
2023-05-10T00:20:21.767Z,61.79
2023-05-10T00:22:48.271Z,61.75
2023-05-10T00:25:15.219Z,62.63
2023-05-10T00:27:41.724Z,62.83
2023-05-10T00:30:08.920Z,62.63
2023-05-10T00:32:35.479Z,62.58
2023-05-10T00:35:01.999Z,62.47
2023-05-10T00:37:28.533Z,62.92
2023-05-10T00:39:55.470Z,63.33
2023-05-10T00:42:23.176Z,62.57
2023-05-10T00:44:49.827Z,62.92
2023-05-10T00:47:18.782Z,63.24
2023-05-10T00:49:46.563Z,63.16
2023-05-10T00:52:13.315Z,64.06
2023-05-10T00:54:40.411Z,63.62
2023-05-10T00:57:07.222Z,64.13
2023-05-10T00:59:34.115Z,64.52
2023-05-10T01:02:00.540Z,63.99
2023-05-10T01:04:27.158Z,64.27
2023-05-10T01:06:54.205Z,64.18
2023-05-10T01:09:22.657Z,63.95
2023-05-10T01:11:51.909Z,64.70
2023-05-10T01:14:20.101Z,64.81
2023-05-10T01:16:49.522Z,64.99
2023-05-10T01:19:30.563Z,64.91
2023-05-10T01:22:41.282Z,65.15
2023-05-10T01:25:10.968Z,65.19
2023-05-10T01:27:59.925Z,64.88
2023-05-10T01:30:41.947Z,64.39
2023-05-10T01:33:44.506Z,65.05
2023-05-10T01:36:49.353Z,64.77
2023-05-10T01:39:31.519Z,65.26
2023-05-10T01:42:00.900Z,65.20
2023-05-10T01:45:07.797Z,65.02
2023-05-10T01:47:45.622Z,64.57
2023-05-10T01:50:19.180Z,65.63
2023-05-10T01:52:52.473Z,65.54
2023-05-10T01:55:22.142Z,65.18
2023-05-10T01:57:54.062Z,65.91
2023-05-10T02:00:21.340Z,65.21
2023-05-10T02:02:50.704Z,65.14
2023-05-10T02:05:20.167Z,65.30
2023-05-10T02:07:48.414Z,65.68
2023-05-10T02:10:19.690Z,65.63
2023-05-10T02:12:49.155Z,65.85
2023-05-10T02:15:21.015Z,65.34
2023-05-10T02:17:48.131Z,65.46
2023-05-10T02:20:17.595Z,66.25
2023-05-10T02:22:48.238Z,65.73
2023-05-10T02:25:16.404Z,66.31
2023-05-10T02:27:45.597Z,66.48
2023-05-10T02:30:15.101Z,66.09
2023-05-10T02:32:43.273Z,66.24
2023-05-10T02:35:11.992Z,66.16
2023-05-10T02:37:40.059Z,65.93
2023-05-10T02:40:08.550Z,66.55
2023-05-10T02:42:38.151Z,66.10
2023-05-10T02:45:11.347Z,66.04
2023-05-10T02:47:38.304Z,65.72
2023-05-10T02:50:05.285Z,66.53
2023-05-10T02:52:41.520Z,66.00
2023-05-10T02:55:12.804Z,66.56
2023-05-10T02:57:44.067Z,65.97
2023-05-10T03:00:11.266Z,65.93
2023-05-10T03:02:37.860Z,65.82
2023-05-10T03:05:04.578Z,65.79
2023-05-10T03:07:31.229Z,65.45
2023-05-10T03:09:57.987Z,66.07
2023-05-10T03:12:45.508Z,66.26
2023-05-10T03:15:40.944Z,66.27
2023-05-10T03:18:22.766Z,66.06
2023-05-10T03:20:54.287Z,66.74
2023-05-10T03:23:44.473Z,66.71
2023-05-10T03:26:17.484Z,66.79
2023-05-10T03:28:44.969Z,66.76
2023-05-10T03:31:13.207Z,66.31
2023-05-10T03:33:50.617Z,66.40
2023-05-10T03:36:17.227Z,66.71
2023-05-10T03:38:43.962Z,67.34
2023-05-10T03:41:10.595Z,66.70
2023-05-10T03:43:37.393Z,67.05
2023-05-10T03:46:07.913Z,67.15
2023-05-10T03:48:34.361Z,67.80
2023-05-10T03:51:01.126Z,67.23
2023-05-10T03:53:27.728Z,67.07
2023-05-10T03:55:54.408Z,67.03
2023-05-10T03:58:20.967Z,67.37
2023-05-10T04:00:47.481Z,67.08
2023-05-10T04:03:14.531Z,66.97
2023-05-10T04:05:41.637Z,67.37
2023-05-10T04:08:08.311Z,67.50
2023-05-10T04:10:35.049Z,66.33
2023-05-10T04:13:01.991Z,66.70
2023-05-10T04:15:28.492Z,66.59
2023-05-10T04:17:57.839Z,66.62
2023-05-10T04:20:24.399Z,66.76
2023-05-10T04:22:50.916Z,66.01
2023-05-10T04:25:17.417Z,66.31
2023-05-10T04:27:43.943Z,65.87
2023-05-10T04:30:11.112Z,66.43
2023-05-10T04:32:37.515Z,66.06
2023-05-10T04:35:04.292Z,66.14
2023-05-10T04:37:30.777Z,65.36
2023-05-10T04:39:57.577Z,64.99
2023-05-10T04:42:24.281Z,65.47
2023-05-10T04:44:50.762Z,65.65
2023-05-10T04:47:17.185Z,63.98
2023-05-10T04:49:44.321Z,64.71
2023-05-10T04:52:11.021Z,63.83
2023-05-10T04:54:37.456Z,64.36
2023-05-10T04:57:04.236Z,63.00
2023-05-10T04:59:30.900Z,63.17
2023-05-10T05:01:57.390Z,63.44
2023-05-10T05:04:24.038Z,62.98
2023-05-10T05:06:52.337Z,63.27
2023-05-10T05:09:20.529Z,62.76
2023-05-10T05:11:47.212Z,62.16
2023-05-10T05:14:13.968Z,62.50
2023-05-10T05:16:40.763Z,61.55
2023-05-10T05:19:07.555Z,61.48
2023-05-10T05:21:34.406Z,61.78
2023-05-10T05:24:00.933Z,60.97
2023-05-10T05:26:27.498Z,60.90
2023-05-10T05:28:54.132Z,61.05
2023-05-10T05:31:22.064Z,60.58
2023-05-10T05:33:48.708Z,59.98
2023-05-10T05:36:16.273Z,60.80
2023-05-10T05:38:42.760Z,60.01
2023-05-10T05:41:09.719Z,60.11
2023-05-10T05:43:38.340Z,59.35
2023-05-10T05:46:05.506Z,59.35
2023-05-10T05:48:32.557Z,58.99
2023-05-10T05:50:59.092Z,58.52
2023-05-10T05:53:25.986Z,58.09
2023-05-10T05:56:00.468Z,58.14
2023-05-10T05:58:27.108Z,58.32
2023-05-10T06:00:53.563Z,57.57
2023-05-10T06:03:21.538Z,57.04
2023-05-10T06:05:48.151Z,57.96
2023-05-10T06:08:14.577Z,56.54
2023-05-10T06:10:41.291Z,55.76
2023-05-10T06:13:08.070Z,56.50
2023-05-10T06:15:34.576Z,55.99
2023-05-10T06:18:02.311Z,55.12
2023-05-10T06:20:29.165Z,55.84
2023-05-10T06:22:57.541Z,55.80
2023-05-10T06:25:24.430Z,57.12
2023-05-10T06:27:53.623Z,54.51
2023-05-10T06:30:20.606Z,54.04
2023-05-10T06:32:47.485Z,54.88
2023-05-10T06:35:14.178Z,54.34
2023-05-10T06:37:41.014Z,53.71
2023-05-10T06:40:08.365Z,53.50
2023-05-10T06:42:34.795Z,52.14
2023-05-10T06:45:03.613Z,52.36
2023-05-10T06:47:30.672Z,54.25
2023-05-10T06:49:57.651Z,54.00
2023-05-10T06:52:24.210Z,52.18
2023-05-10T06:54:50.949Z,52.77
2023-05-10T06:57:31.215Z,52.18
2023-05-10T07:00:00.208Z,52.72
2023-05-10T07:02:27.865Z,51.58
2023-05-10T07:04:54.453Z,51.14
2023-05-10T07:07:21.267Z,51.49
2023-05-10T07:09:48.015Z,51.49
2023-05-10T07:12:15.681Z,52.02
2023-05-10T07:14:43.282Z,50.94
2023-05-10T07:17:10.422Z,51.72
2023-05-10T07:19:37.102Z,51.01
2023-05-10T07:22:04.095Z,51.85
2023-05-10T07:24:30.986Z,51.00
2023-05-10T07:26:59.426Z,50.26
2023-05-10T07:29:26.750Z,50.45
2023-05-10T07:31:53.428Z,50.70
2023-05-10T07:34:20.208Z,49.09
2023-05-10T07:36:47.451Z,49.37
2023-05-10T07:39:18.668Z,48.75
2023-05-10T07:41:53.086Z,48.61
2023-05-10T07:44:19.848Z,48.95
2023-05-10T07:46:46.344Z,49.40
2023-05-10T07:49:13.870Z,48.78
2023-05-10T07:51:40.552Z,48.59
2023-05-10T07:54:07.011Z,49.13
2023-05-10T07:56:33.751Z,47.88
2023-05-10T07:59:00.751Z,47.68
2023-05-10T08:01:31.184Z,48.29
2023-05-10T08:03:57.882Z,47.08
2023-05-10T08:06:24.607Z,48.66
2023-05-10T08:08:51.072Z,47.72
2023-05-10T08:11:18.809Z,47.03
2023-05-10T08:13:46.289Z,47.27
2023-05-10T08:16:13.081Z,46.56
2023-05-10T08:18:41.035Z,46.66
2023-05-10T08:21:08.037Z,47.18
2023-05-10T08:23:34.556Z,45.85
2023-05-10T08:26:01.195Z,46.93
2023-05-10T08:28:27.746Z,46.68
2023-05-10T08:30:54.325Z,45.75
2023-05-10T08:33:21.497Z,46.70
2023-05-10T08:35:48.423Z,45.31
2023-05-10T08:38:15.014Z,45.35
2023-05-10T08:40:45.989Z,43.89
2023-05-10T08:43:14.099Z,45.42
2023-05-10T08:45:43.081Z,44.23
2023-05-10T08:48:11.917Z,45.29
2023-05-10T08:50:40.746Z,44.55
2023-05-10T08:53:11.642Z,43.26
2023-05-10T08:55:38.849Z,43.49
2023-05-10T08:58:09.748Z,42.58
2023-05-10T09:00:37.638Z,42.82
2023-05-10T09:03:05.997Z,42.73
2023-05-10T09:05:33.099Z,42.34
2023-05-10T09:07:59.883Z,41.38
2023-05-10T09:10:26.610Z,42.23
2023-05-10T09:12:54.182Z,42.92
2023-05-10T09:15:21.170Z,40.65
2023-05-10T09:17:50.297Z,41.98
2023-05-10T09:20:21.494Z,40.97
2023-05-10T09:22:48.519Z,39.96
2023-05-10T09:25:17.506Z,40.16
2023-05-10T09:27:48.726Z,39.92
2023-05-10T09:30:25.133Z,40.57
2023-05-10T09:32:51.881Z,39.58
2023-05-10T09:35:19.502Z,39.78
2023-05-10T09:37:48.258Z,39.17
2023-05-10T09:40:18.283Z,38.25
2023-05-10T09:43:01.737Z,40.24
2023-05-10T09:45:30.921Z,39.31
2023-05-10T09:47:59.254Z,39.02
2023-05-10T09:50:27.311Z,37.79
2023-05-10T09:53:15.034Z,38.37
2023-05-10T09:55:46.676Z,37.11
2023-05-10T09:58:16.752Z,37.52
2023-05-10T10:00:46.230Z,37.04
2023-05-10T10:03:17.585Z,37.11
2023-05-10T10:05:45.022Z,36.76
2023-05-10T10:08:13.075Z,36.42
2023-05-10T10:10:40.311Z,37.88
2023-05-10T10:13:07.982Z,37.59
2023-05-10T10:15:37.538Z,36.91
2023-05-10T10:18:05.682Z,36.77
2023-05-10T10:20:33.808Z,36.33
2023-05-10T10:23:03.227Z,36.79
2023-05-10T10:25:30.111Z,36.16
2023-05-10T10:28:23.275Z,37.17
2023-05-10T10:30:53.081Z,36.64
2023-05-10T10:33:41.535Z,35.10
2023-05-10T10:36:08.297Z,35.59
2023-05-10T10:39:01.623Z,35.23
2023-05-10T10:41:32.251Z,35.44
2023-05-10T10:44:23.746Z,36.28
2023-05-10T10:47:02.671Z,36.23
2023-05-10T10:49:32.506Z,35.42
2023-05-10T10:52:28.471Z,34.87
2023-05-10T10:55:08.879Z,34.48
2023-05-10T10:57:41.430Z,34.34
2023-05-10T11:00:28.324Z,34.72
2023-05-10T11:02:57.132Z,33.89
2023-05-10T11:05:34.686Z,35.01
2023-05-10T11:08:13.199Z,33.53
2023-05-10T11:10:41.189Z,33.36
2023-05-10T11:13:10.638Z,32.66
2023-05-10T11:15:39.706Z,34.12
2023-05-10T11:18:27.718Z,33.56
2023-05-10T11:20:58.866Z,33.58
2023-05-10T11:23:33.617Z,33.97
2023-05-10T11:26:01.581Z,34.56
2023-05-10T11:28:28.310Z,33.13
2023-05-10T11:30:55.827Z,32.32
2023-05-10T11:33:22.806Z,32.00
2023-05-10T11:35:51.955Z,33.40
2023-05-10T11:38:18.953Z,32.62
2023-05-10T11:40:47.979Z,33.13
2023-05-10T11:43:14.747Z,31.77
2023-05-10T11:45:42.529Z,33.03
2023-05-10T11:48:09.285Z,32.09
2023-05-10T11:50:35.841Z,32.39
2023-05-10T11:53:02.545Z,31.60
2023-05-10T11:55:29.003Z,31.79
2023-05-10T11:57:55.633Z,31.70
2023-05-10T12:00:22.945Z,31.46
2023-05-10T12:02:50.581Z,32.85
2023-05-10T12:05:17.703Z,32.07
2023-05-10T12:07:44.290Z,31.27
2023-05-10T12:10:14.672Z,32.17
2023-05-10T12:12:43.875Z,32.12
2023-05-10T12:15:21.894Z,31.69
2023-05-10T12:17:49.058Z,32.41
2023-05-10T12:20:17.533Z,31.76
2023-05-10T12:22:52.494Z,31.71
2023-05-10T12:25:20.317Z,32.03
2023-05-10T12:28:07.031Z,31.87
2023-05-10T12:30:38.036Z,31.64
2023-05-10T12:33:12.928Z,32.38
2023-05-10T12:35:46.748Z,33.76
2023-05-10T12:38:33.191Z,32.80
2023-05-10T12:41:02.331Z,34.03
2023-05-10T12:43:29.548Z,31.98
2023-05-10T12:45:56.230Z,31.03
2023-05-10T12:48:23.469Z,31.91
2023-05-10T12:50:49.919Z,30.15
2023-05-10T12:53:17.148Z,29.83
2023-05-10T12:55:44.622Z,30.20
2023-05-10T12:58:13.889Z,31.17
2023-05-10T13:00:44.596Z,30.09
2023-05-10T13:03:11.313Z,31.39
2023-05-10T13:05:41.086Z,29.54
2023-05-10T13:08:07.642Z,27.90
2023-05-10T13:10:34.397Z,28.24
2023-05-10T13:13:01.534Z,29.60
2023-05-10T13:15:28.436Z,28.37
2023-05-10T13:17:55.266Z,28.01
2023-05-10T13:20:22.223Z,28.09
2023-05-10T13:22:50.063Z,26.66
2023-05-10T13:25:17.040Z,26.77
2023-05-10T13:27:43.575Z,26.23
2023-05-10T13:30:11.124Z,26.05
2023-05-10T13:32:38.312Z,26.33
2023-05-10T13:35:06.084Z,25.89
2023-05-10T13:37:33.284Z,25.88
2023-05-10T13:40:00.100Z,26.24
2023-05-10T13:42:26.877Z,26.42
2023-05-10T13:45:13.785Z,26.03
2023-05-10T13:47:40.562Z,26.33
2023-05-10T13:50:07.590Z,27.37
2023-05-10T13:52:34.188Z,26.20
2023-05-10T13:55:01.103Z,26.62
2023-05-10T13:57:27.952Z,26.86
2023-05-10T13:59:55.877Z,26.72
2023-05-10T14:02:24.923Z,26.15
2023-05-10T14:04:51.712Z,27.68
2023-05-10T14:07:18.283Z,26.79
2023-05-10T14:09:44.909Z,26.39
2023-05-10T14:12:11.721Z,26.64
2023-05-10T14:14:38.444Z,26.98
2023-05-10T14:17:05.102Z,26.69
2023-05-10T14:19:31.908Z,26.92
2023-05-10T14:21:58.717Z,26.25
2023-05-10T14:24:25.440Z,27.19
2023-05-10T14:26:51.945Z,26.54
2023-05-10T14:29:18.633Z,26.81
2023-05-10T14:31:45.477Z,27.45
2023-05-10T14:34:12.172Z,27.77
2023-05-10T14:36:38.704Z,28.12
2023-05-10T14:39:05.449Z,28.46
2023-05-10T14:41:32.140Z,27.55
2023-05-10T14:43:58.930Z,28.00
2023-05-10T14:46:25.688Z,27.95
2023-05-10T14:48:52.497Z,28.25
2023-05-10T14:51:19.126Z,27.06
2023-05-10T14:53:45.496Z,27.84
2023-05-10T14:56:12.040Z,28.32
2023-05-10T14:58:38.509Z,28.03
2023-05-10T15:01:06.979Z,28.26
2023-05-10T15:03:34.033Z,27.79
2023-05-10T15:06:05.042Z,28.53
2023-05-10T15:08:31.784Z,27.20
2023-05-10T15:10:58.495Z,27.57
2023-05-10T15:13:25.253Z,27.88
2023-05-10T15:15:51.793Z,26.83
2023-05-10T15:18:20.140Z,27.56
2023-05-10T15:20:46.973Z,28.60
2023-05-10T15:23:13.516Z,28.86
2023-05-10T15:25:40.007Z,29.22
2023-05-10T15:28:06.792Z,28.92
2023-05-10T15:30:33.557Z,28.70
2023-05-10T15:33:00.419Z,28.42
2023-05-10T15:35:27.737Z,27.98
2023-05-10T15:37:54.233Z,28.11
2023-05-10T15:40:22.200Z,28.16
2023-05-10T15:42:48.753Z,28.56
2023-05-10T15:45:15.642Z,28.07
2023-05-10T15:47:42.317Z,28.58
2023-05-10T15:50:09.878Z,29.59
2023-05-10T15:52:38.620Z,29.76
2023-05-10T15:55:05.860Z,29.84
2023-05-10T15:57:32.395Z,30.56
2023-05-10T15:59:59.124Z,30.70
2023-05-10T16:02:27.856Z,29.47
2023-05-10T16:04:54.532Z,31.11
2023-05-10T16:07:21.195Z,30.87
2023-05-10T16:09:48.124Z,30.67
2023-05-10T16:12:17.316Z,30.88
2023-05-10T16:14:44.081Z,30.66
2023-05-10T16:17:10.854Z,30.25
2023-05-10T16:19:37.648Z,31.89
2023-05-10T16:22:05.042Z,31.27
2023-05-10T16:24:31.743Z,31.35
2023-05-10T16:26:58.516Z,32.33
2023-05-10T16:29:25.026Z,31.52
2023-05-10T16:31:51.525Z,31.80
2023-05-10T16:34:17.939Z,32.42
2023-05-10T16:36:44.647Z,32.75
2023-05-10T16:39:11.150Z,32.99
2023-05-10T16:41:37.560Z,32.97
2023-05-10T16:44:04.064Z,33.60
2023-05-10T16:46:30.629Z,33.44
2023-05-10T16:48:57.138Z,32.79
2023-05-10T16:51:23.914Z,33.14
2023-05-10T16:53:50.296Z,33.66
2023-05-10T16:56:17.016Z,33.64
2023-05-10T16:58:43.569Z,34.02
2023-05-10T17:01:10.302Z,34.44
2023-05-10T17:03:36.913Z,34.83
2023-05-10T17:06:05.791Z,34.71
2023-05-10T17:08:32.360Z,35.17
2023-05-10T17:11:01.438Z,37.57
2023-05-10T17:13:28.222Z,41.23
2023-05-10T17:15:55.063Z,44.04
2023-05-10T17:18:22.079Z,45.37
2023-05-10T17:20:48.645Z,46.29
2023-05-10T17:23:15.434Z,46.83
2023-05-10T17:25:42.135Z,47.70
2023-05-10T17:28:08.688Z,48.72
2023-05-10T17:30:37.440Z,49.11
2023-05-10T17:33:04.155Z,49.77
2023-05-10T17:35:30.879Z,50.24
2023-05-10T17:37:57.469Z,50.85
2023-05-10T17:40:24.032Z,50.89
2023-05-10T17:42:50.766Z,51.41
2023-05-10T17:45:18.839Z,52.02
2023-05-10T17:47:46.318Z,51.91
2023-05-10T17:50:13.895Z,52.53
2023-05-10T17:52:40.636Z,52.34
2023-05-10T17:55:07.470Z,52.72
2023-05-10T17:57:34.299Z,53.61
2023-05-10T18:00:00.971Z,53.49
2023-05-10T18:02:27.388Z,53.93
2023-05-10T18:04:54.330Z,54.23
2023-05-10T18:07:24.026Z,54.45
2023-05-10T18:09:50.594Z,54.36
2023-05-10T18:12:17.224Z,55.38
2023-05-10T18:14:43.733Z,55.12
2023-05-10T18:17:10.542Z,55.37
2023-05-10T18:19:37.543Z,55.38
2023-05-10T18:22:04.558Z,55.65
2023-05-10T18:27:20.270Z,57.02
2023-05-10T18:29:46.919Z,56.97
2023-05-10T18:32:13.816Z,57.66
2023-05-10T18:34:40.307Z,57.65
2023-05-10T18:37:08.004Z,58.31
2023-05-10T18:39:36.137Z,58.60
2023-05-10T18:42:04.317Z,59.50
2023-05-10T18:44:31.403Z,59.84
2023-05-10T18:46:58.158Z,60.63
2023-05-10T18:49:24.947Z,60.55
2023-05-10T18:51:52.869Z,61.48
2023-05-10T18:54:19.639Z,62.32
2023-05-10T18:56:46.894Z,63.11
2023-05-10T18:59:13.854Z,62.27
2023-05-10T19:01:41.511Z,63.34
2023-05-10T19:04:08.162Z,63.45
2023-05-10T19:06:36.151Z,64.13
2023-05-10T19:09:02.820Z,64.32
2023-05-10T19:11:29.280Z,64.41
2023-05-10T19:13:55.790Z,64.64
2023-05-10T19:16:24.243Z,64.82
2023-05-10T19:18:52.531Z,65.68
2023-05-10T19:21:19.346Z,65.61
2023-05-10T19:23:46.047Z,65.90
2023-05-10T19:26:12.608Z,65.80
2023-05-10T19:28:39.702Z,66.15
2023-05-10T19:31:09.337Z,66.40
2023-05-10T19:33:36.108Z,66.88
2023-05-10T19:36:02.927Z,66.79
2023-05-10T19:38:29.797Z,66.64
2023-05-10T19:40:59.549Z,66.99
2023-05-10T19:43:27.577Z,68.16
2023-05-10T19:45:55.850Z,68.40
2023-05-10T19:48:22.434Z,68.78
2023-05-10T19:50:49.184Z,68.46
2023-05-10T19:53:15.641Z,68.48
2023-05-10T19:55:42.676Z,69.23
2023-05-10T19:58:09.190Z,68.99
2023-05-10T20:00:36.279Z,69.15
2023-05-10T20:03:04.062Z,69.37
2023-05-10T20:05:30.935Z,69.30
2023-05-10T20:07:57.534Z,69.12
2023-05-10T20:10:26.375Z,69.28
2023-05-10T20:12:54.169Z,69.58
2023-05-10T20:15:22.019Z,69.84
2023-05-10T20:17:52.485Z,69.91
2023-05-10T20:20:20.443Z,69.80
2023-05-10T20:22:49.647Z,70.16
2023-05-10T20:25:17.839Z,71.10
2023-05-10T20:27:44.621Z,71.42
2023-05-10T20:30:12.989Z,71.45
2023-05-10T20:32:39.876Z,71.67
2023-05-10T20:35:06.802Z,70.86
2023-05-10T20:37:33.374Z,70.77
2023-05-10T20:40:00.078Z,71.09
2023-05-10T20:42:28.702Z,71.21
2023-05-10T20:44:55.899Z,71.38
2023-05-10T20:47:22.403Z,71.46
2023-05-10T20:49:49.604Z,71.54
2023-05-10T20:52:16.846Z,72.30
2023-05-10T20:54:43.855Z,71.84
2023-05-10T20:57:10.292Z,71.89
2023-05-10T20:59:36.991Z,72.61
2023-05-10T21:02:03.586Z,73.28
2023-05-10T21:04:30.337Z,73.19
2023-05-10T21:06:56.703Z,73.13
2023-05-10T21:09:23.249Z,74.10
2023-05-10T21:11:50.234Z,73.90
2023-05-10T21:14:16.843Z,75.18
2023-05-10T21:16:46.623Z,74.61
2023-05-10T21:19:13.115Z,75.54
2023-05-10T21:21:39.814Z,75.53
2023-05-10T21:24:06.938Z,76.28
2023-05-10T21:26:34.709Z,75.51
2023-05-10T21:29:01.457Z,76.22
2023-05-10T21:31:28.273Z,76.26
2023-05-10T21:33:55.059Z,76.62
2023-05-10T21:36:21.542Z,76.76
2023-05-10T21:38:48.430Z,77.63
2023-05-10T21:41:14.822Z,76.67
2023-05-10T21:43:41.465Z,77.15
2023-05-10T21:46:08.811Z,77.28
2023-05-10T21:48:36.676Z,78.15
2023-05-10T21:51:03.522Z,77.71
2023-05-10T21:53:29.989Z,78.51
2023-05-10T21:55:56.639Z,78.54
2023-05-10T21:58:24.490Z,79.10
2023-05-10T22:00:51.316Z,79.10
2023-05-10T22:03:18.268Z,79.24
2023-05-10T22:05:45.162Z,79.30
2023-05-10T22:08:11.623Z,79.30
2023-05-10T22:10:38.310Z,79.71
2023-05-10T22:13:05.179Z,79.34
2023-05-10T22:15:32.591Z,79.76
2023-05-10T22:18:00.208Z,79.32
2023-05-10T22:20:26.951Z,80.23
2023-05-10T22:22:55.226Z,79.87
2023-05-10T22:25:21.868Z,80.55
2023-05-10T22:27:48.608Z,80.94
2023-05-10T22:30:15.752Z,81.02
2023-05-10T22:32:42.640Z,80.97
2023-05-10T22:35:09.372Z,81.82
2023-05-10T22:37:36.034Z,81.77
2023-05-10T22:40:02.729Z,81.75
2023-05-10T22:42:30.043Z,81.93
2023-05-10T22:44:56.519Z,82.04
2023-05-10T22:47:23.267Z,82.55
2023-05-10T22:49:50.193Z,81.46
2023-05-10T22:52:16.552Z,82.01
2023-05-10T22:54:43.064Z,82.46
2023-05-10T22:57:09.907Z,82.04
2023-05-10T22:59:36.509Z,82.75
2023-05-10T23:02:04.197Z,81.57
2023-05-10T23:04:30.954Z,81.05
2023-05-10T23:07:00.530Z,82.07
2023-05-10T23:09:27.084Z,82.42
2023-05-10T23:11:53.891Z,82.88
2023-05-10T23:14:20.425Z,83.66
2023-05-10T23:16:47.214Z,83.73
2023-05-10T23:19:13.714Z,82.90
2023-05-10T23:21:40.409Z,82.63
2023-05-10T23:24:07.451Z,82.42
2023-05-10T23:26:34.336Z,84.39
2023-05-10T23:29:01.205Z,84.90
2023-05-10T23:31:27.818Z,84.74
2023-05-10T23:33:54.691Z,84.79
2023-05-10T23:36:21.270Z,84.64
2023-05-10T23:38:47.728Z,84.86
2023-05-10T23:41:14.280Z,84.64
2023-05-10T23:43:40.712Z,84.32
2023-05-10T23:46:07.444Z,86.03
2023-05-10T23:48:34.047Z,86.05
2023-05-10T23:51:00.589Z,85.57
2023-05-10T23:53:27.351Z,85.83
2023-05-10T23:55:53.885Z,85.53
2023-05-10T23:58:20.370Z,86.58
